Time;durP1;ratioP1;P1;durP2;ratioP2;P2;SDS_P1;SDS_P2;PMS_P1;PMS_P2;Temp;Humidity;BMP_temperature;BMP_pressure;BME280_temperature;BME280_humidity;BME280_pressure;Samples;Min_cycle;Max_cycle;Signal;HPM_P1;HPM_P2
2023/10/31 00:00:11;;;;;;;16.13;5.53;;;;;;;-149.70;100.00;75621.34;5013905;28;20558;-65
2023/10/31 00:02:38;;;;;;;14.27;5.28;;;;;;;-149.70;100.00;75613.22;5013440;28;20103;-65
2023/10/31 00:05:06;;;;;;;8.95;5.05;;;;;;;-149.70;100.00;75605.06;5014218;28;20054;-65
2023/10/31 00:07:32;;;;;;;17.48;5.97;;;;;;;-149.70;100.00;75603.03;5013785;28;20172;-65
2023/10/31 00:09:59;;;;;;;13.55;6.07;;;;;;;-149.70;100.00;75601.00;5013843;28;20045;-65
2023/10/31 00:12:26;;;;;;;12.05;5.25;;;;;;;-149.70;100.00;75601.00;5013305;28;20052;-66
2023/10/31 00:14:53;;;;;;;15.73;6.30;;;;;;;-149.70;100.00;75590.84;5013112;28;20486;-66
2023/10/31 00:17:19;;;;;;;12.77;6.25;;;;;;;-149.70;100.00;75601.00;5013582;28;20395;-66
2023/10/31 00:19:47;;;;;;;11.75;5.75;;;;;;;-149.70;100.00;75590.84;5013346;28;20053;-66
2023/10/31 00:22:14;;;;;;;10.30;5.28;;;;;;;-149.70;100.00;75596.94;5012758;28;20413;-66
2023/10/31 00:24:40;;;;;;;11.90;5.22;;;;;;;-149.70;100.00;75594.91;4995735;28;20053;-67
2023/10/31 00:27:07;;;;;;;22.20;6.10;;;;;;;-149.70;100.00;75601.00;5012463;28;20406;-67
2023/10/31 00:29:33;;;;;;;8.15;5.00;;;;;;;-149.70;100.00;75592.88;5012448;28;20062;-68
2023/10/31 00:32:00;;;;;;;17.98;5.63;;;;;;;-149.70;100.00;75586.78;5012312;28;20187;-68
2023/10/31 00:34:26;;;;;;;10.07;5.60;;;;;;;-149.70;100.00;75568.50;5012012;28;20046;-67
2023/10/31 00:36:53;;;;;;;15.80;5.70;;;;;;;-149.70;100.00;75562.38;5012153;28;20096;-67
2023/10/31 00:39:19;;;;;;;13.15;5.93;;;;;;;-149.70;100.00;75568.50;5011835;28;20046;-67
2023/10/31 00:41:46;;;;;;;11.70;5.65;;;;;;;-149.70;100.00;75548.16;5012128;28;20041;-67
2023/10/31 00:44:13;;;;;;;11.80;5.82;;;;;;;-149.70;100.00;75542.06;5011601;28;20072;-67
2023/10/31 00:46:40;;;;;;;17.40;5.63;;;;;;;-149.70;100.00;75554.25;5011892;28;20042;-67
2023/10/31 00:49:06;;;;;;;15.38;5.38;;;;;;;-149.70;100.00;75540.03;5012494;28;20438;-67
2023/10/31 00:51:33;;;;;;;18.95;5.68;;;;;;;-149.70;100.00;75544.09;5011659;28;20062;-67
2023/10/31 00:53:59;;;;;;;12.07;5.82;;;;;;;-149.70;100.00;75562.38;4998381;28;20054;-67
2023/10/31 00:56:27;;;;;;;14.40;5.90;;;;;;;-149.70;100.00;75566.44;4992316;28;20134;-67
2023/10/31 00:58:53;;;;;;;12.75;5.55;;;;;;;-149.70;100.00;75578.66;4991521;28;20074;-67
2023/10/31 01:01:21;;;;;;;12.13;5.75;;;;;;;-149.70;100.00;75588.81;4992415;28;20069;-67
2023/10/31 01:03:47;;;;;;;15.85;5.55;;;;;;;-149.70;100.00;75588.81;4991929;28;20479;-67
2023/10/31 01:06:14;;;;;;;11.02;5.10;;;;;;;-149.70;100.00;75576.63;4991927;28;20046;-67
2023/10/31 01:08:40;;;;;;;10.93;5.95;;;;;;;-149.70;100.00;75556.28;4991983;28;20126;-67
2023/10/31 01:11:07;;;;;;;15.88;5.72;;;;;;;-149.70;100.00;75548.16;4992284;28;20112;-68
2023/10/31 01:13:33;;;;;;;22.08;5.93;;;;;;;-149.70;100.00;75552.22;4991957;28;20388;-67
2023/10/31 01:16:01;;;;;;;11.93;5.95;;;;;;;-149.70;100.00;75560.34;4991520;28;20402;-68
2023/10/31 01:18:28;;;;;;;14.23;5.75;;;;;;;-149.70;100.00;75548.16;4991488;28;20054;-67
2023/10/31 01:20:54;;;;;;;13.10;6.10;;;;;;;-149.70;100.00;75540.03;4991529;28;20430;-68
2023/10/31 01:23:21;;;;;;;17.90;6.75;;;;;;;-149.70;100.00;75538.00;4991557;28;20050;-68
2023/10/31 01:25:47;;;;;;;10.50;5.78;;;;;;;-149.70;100.00;75523.75;4991479;28;20121;-67
2023/10/31 01:28:14;;;;;;;17.33;6.15;;;;;;;-149.70;100.00;75523.75;4991835;28;20053;-67
2023/10/31 01:30:40;;;;;;;21.65;6.75;;;;;;;-149.70;100.00;75523.75;4991508;28;20057;-67
2023/10/31 01:33:07;;;;;;;11.60;5.88;;;;;;;-149.70;100.00;75525.78;4992257;28;20042;-68
2023/10/31 01:35:34;;;;;;;12.10;6.32;;;;;;;-149.70;100.00;75527.81;4991542;28;20049;-67
2023/10/31 01:38:01;;;;;;;13.93;6.85;;;;;;;-149.70;100.00;75527.81;4991435;28;20104;-67
2023/10/31 01:40:27;;;;;;;21.65;6.78;;;;;;;-149.70;100.00;75533.94;4991227;28;20057;-68
2023/10/31 01:42:55;;;;;;;18.58;6.65;;;;;;;-149.70;100.00;75527.81;4991240;28;20046;-68
2023/10/31 01:45:21;;;;;;;17.88;6.57;;;;;;;-149.70;100.00;75523.75;4990786;28;20046;-67
2023/10/31 01:47:49;;;;;;;14.38;7.07;;;;;;;-149.70;100.00;75523.75;4990861;28;20047;-67
2023/10/31 01:50:18;;;;;;;12.05;6.22;;;;;;;-149.70;100.00;75525.78;4990892;28;20069;-68
2023/10/31 01:52:45;;;;;;;12.82;7.00;;;;;;;-149.70;100.00;75527.81;4993344;28;20097;-67
2023/10/31 01:55:12;;;;;;;22.75;7.85;;;;;;;-149.70;100.00;75533.94;5010608;28;20506;-67
2023/10/31 01:57:39;;;;;;;11.52;6.95;;;;;;;-149.70;100.00;75521.72;5010206;28;20100;-67
2023/10/31 02:00:06;;;;;;;23.17;7.00;;;;;;;-149.70;100.00;75515.63;5010995;28;20038;-68
2023/10/31 02:02:35;;;;;;;15.10;7.63;;;;;;;-149.70;100.00;75503.44;5011323;28;20417;-68
2023/10/31 02:08:49;;;;;;;12.75;7.30;;;;;;;-149.70;100.00;75495.31;5009038;28;20501;-68
2023/10/31 02:11:16;;;;;;;23.02;8.32;;;;;;;-149.70;100.00;75499.38;5009648;28;20049;-68
2023/10/31 02:13:42;;;;;;;20.95;8.52;;;;;;;-149.70;100.00;75499.38;5009601;28;20045;-68
2023/10/31 02:16:09;;;;;;;13.57;7.35;;;;;;;-149.70;100.00;75489.22;5010072;28;20052;-68
2023/10/31 02:18:36;;;;;;;20.95;8.23;;;;;;;-149.70;100.00;75491.25;5009948;28;20048;-68
2023/10/31 02:21:03;;;;;;;23.05;7.63;;;;;;;-149.70;100.00;75491.25;5009964;28;20045;-68
2023/10/31 02:23:30;;;;;;;15.32;7.35;;;;;;;-149.70;100.00;75493.28;5009055;28;20053;-67
2023/10/31 02:25:57;;;;;;;19.88;8.52;;;;;;;-149.70;100.00;75479.03;5009358;28;20052;-68
2023/10/31 02:28:27;;;;;;;16.08;8.70;;;;;;;-149.70;100.00;75485.13;5009338;28;20042;-68
2023/10/31 02:30:54;;;;;;;21.23;8.18;;;;;;;-149.70;100.00;75477.00;5009415;28;20045;-67
2023/10/31 02:33:21;;;;;;;12.98;7.90;;;;;;;-149.70;100.00;75474.97;5009360;28;20049;-67
2023/10/31 02:35:48;;;;;;;13.38;8.40;;;;;;;-149.70;100.00;75497.34;5009321;28;20057;-67
2023/10/31 02:38:14;;;;;;;18.13;8.85;;;;;;;-149.70;100.00;75509.53;5008961;28;20046;-67
2023/10/31 02:40:41;;;;;;;18.52;8.55;;;;;;;-149.70;100.00;75509.53;5010176;28;20045;-67
2023/10/31 02:43:07;;;;;;;18.20;8.23;;;;;;;-149.70;100.00;75511.56;5009454;28;20517;-68
2023/10/31 02:45:36;;;;;;;17.75;8.25;;;;;;;-149.70;100.00;75523.75;5009481;28;20100;-68
2023/10/31 02:48:03;;;;;;;17.83;9.10;;;;;;;-149.70;100.00;75525.78;5009464;28;20418;-69
2023/10/31 02:50:29;;;;;;;22.95;9.20;;;;;;;-149.70;100.00;75527.81;5009273;28;20053;-66
2023/10/31 02:52:56;;;;;;;19.58;9.05;;;;;;;-149.70;100.00;75523.75;5004580;28;20104;-69
2023/10/31 02:55:22;;;;;;;15.73;9.18;;;;;;;-149.70;100.00;75513.59;4989799;28;20050;-66
2023/10/31 02:57:49;;;;;;;21.35;10.10;;;;;;;-149.70;100.00;75507.50;4989846;28;20088;-66
2023/10/31 03:00:16;;;;;;;22.63;10.13;;;;;;;-149.70;100.00;75501.41;4989861;28;20062;-66
2023/10/31 03:02:42;;;;;;;26.42;9.98;;;;;;;-149.70;100.00;75489.22;4989722;28;20166;-68
2023/10/31 03:05:09;;;;;;;22.40;10.10;;;;;;;-149.70;100.00;75485.13;4990268;28;20046;-66
2023/10/31 03:07:36;;;;;;;24.10;10.27;;;;;;;-149.70;100.00;75481.06;4989854;28;20069;-66
2023/10/31 03:10:02;;;;;;;17.70;9.57;;;;;;;-149.70;100.00;75474.97;4989572;28;20126;-66
2023/10/31 03:12:30;;;;;;;21.77;10.20;;;;;;;-149.70;100.00;75472.94;4989648;28;20050;-67
2023/10/31 03:14:56;;;;;;;19.85;9.93;;;;;;;-149.70;100.00;75477.00;4989728;28;20080;-66
2023/10/31 03:17:25;;;;;;;20.80;10.77;;;;;;;-149.70;100.00;75462.78;4976046;28;20093;-69
2023/10/31 03:19:52;;;;;;;16.27;9.90;;;;;;;-149.70;100.00;75458.72;4993452;28;20046;-67
2023/10/31 03:22:18;;;;;;;24.33;10.23;;;;;;;-149.70;100.00;75450.59;4993716;28;20062;-66
2023/10/31 03:24:45;;;;;;;18.42;9.77;;;;;;;-149.70;100.00;75454.66;4993731;28;20120;-66
2023/10/31 03:27:12;;;;;;;15.73;10.00;;;;;;;-149.70;100.00;75462.78;4993582;28;20101;-66
2023/10/31 03:29:38;;;;;;;17.83;9.57;;;;;;;-149.70;100.00;75454.66;4993942;28;20396;-66
2023/10/31 03:32:05;;;;;;;17.75;9.38;;;;;;;-149.70;100.00;75458.72;4993313;28;20046;-67
2023/10/31 03:34:32;;;;;;;16.75;9.35;;;;;;;-149.70;100.00;75460.75;4993226;28;20116;-66
2023/10/31 03:36:59;;;;;;;17.15;9.10;;;;;;;-149.70;100.00;75458.72;4993270;28;20054;-66
2023/10/31 03:39:26;;;;;;;21.00;9.88;;;;;;;-149.70;100.00;75462.78;4993378;28;20050;-66
2023/10/31 03:41:53;;;;;;;22.90;10.27;;;;;;;-149.70;100.00;75456.69;4993312;28;20058;-66
2023/10/31 03:44:19;;;;;;;20.50;9.05;;;;;;;-149.70;100.00;75464.81;4992998;28;20047;-66
2023/10/31 03:46:46;;;;;;;17.27;9.43;;;;;;;-149.70;100.00;75466.84;4993209;28;20046;-67
2023/10/31 03:49:12;;;;;;;17.83;9.52;;;;;;;-149.70;100.00;75464.81;4992733;28;20491;-66
2023/10/31 03:51:39;;;;;;;19.92;9.88;;;;;;;-149.70;100.00;75460.75;4994030;28;20480;-66
2023/10/31 03:54:06;;;;;;;19.65;10.00;;;;;;;-149.70;100.00;75479.03;5006458;28;20100;-67
2023/10/31 03:56:42;;;;;;;16.67;9.35;;;;;;;-149.70;100.00;75485.13;5012370;28;20088;-67
2023/10/31 03:59:09;;;;;;;17.35;9.35;;;;;;;-149.70;100.00;75491.25;5012967;28;20100;-67
2023/10/31 04:01:35;;;;;;;24.70;9.52;;;;;;;-149.70;100.00;75493.28;5012590;28;20041;-67
2023/10/31 04:04:02;;;;;;;19.20;9.48;;;;;;;-149.70;100.00;75477.00;5012342;28;20058;-67
2023/10/31 04:06:29;;;;;;;15.82;8.68;;;;;;;-149.70;100.00;75491.25;5011222;28;20118;-68
2023/10/31 04:08:56;;;;;;;17.95;10.63;;;;;;;-149.70;100.00;75483.09;5012000;28;20509;-68
2023/10/31 04:11:23;;;;;;;13.10;9.05;;;;;;;-149.70;100.00;75479.03;5011966;28;20572;-69
2023/10/31 04:13:49;;;;;;;19.08;9.48;;;;;;;-149.70;100.00;75468.88;5012240;28;20096;-69
2023/10/31 04:16:16;;;;;;;21.95;10.27;;;;;;;-149.70;100.00;75466.84;5012242;28;20112;-68
2023/10/31 04:18:43;;;;;;;16.20;9.52;;;;;;;-149.70;100.00;75466.84;5011792;28;20456;-65
2023/10/31 04:21:09;;;;;;;18.92;9.85;;;;;;;-149.70;100.00;75470.91;5012802;28;20050;-68
2023/10/31 04:23:36;;;;;;;13.57;9.85;;;;;;;-149.70;100.00;75466.84;5012316;28;20224;-68
2023/10/31 04:26:05;;;;;;;16.05;10.48;;;;;;;-149.70;100.00;75470.91;5011762;28;20038;-67
2023/10/31 04:28:32;;;;;;;19.35;10.75;;;;;;;-149.70;100.00;75460.75;5011513;28;20049;-67
2023/10/31 04:30:58;;;;;;;18.30;10.40;;;;;;;-149.70;100.00;75466.84;5012259;28;20204;-66
2023/10/31 04:33:25;;;;;;;16.25;10.32;;;;;;;-149.70;100.00;75456.69;5011593;28;20498;-69
2023/10/31 04:35:52;;;;;;;29.02;11.45;;;;;;;-149.70;100.00;75454.66;5011481;28;20564;-66
2023/10/31 04:38:19;;;;;;;18.17;11.77;;;;;;;-149.70;100.00;75458.72;5011525;28;20129;-66
2023/10/31 04:40:45;;;;;;;19.58;12.25;;;;;;;-149.70;100.00;75448.56;5011441;28;20054;-66
2023/10/31 04:43:12;;;;;;;23.48;12.98;;;;;;;-149.70;100.00;75458.72;5011420;28;20548;-67
2023/10/31 04:45:42;;;;;;;19.17;12.75;;;;;;;-149.70;100.00;75452.63;5011902;28;20060;-68
2023/10/31 04:48:08;;;;;;;20.60;12.45;;;;;;;-149.70;100.00;75446.53;5012343;28;20512;-68
2023/10/31 04:50:35;;;;;;;22.73;12.95;;;;;;;-149.70;100.00;75444.47;5011525;28;20050;-69
2023/10/31 04:53:01;;;;;;;23.33;13.35;;;;;;;-149.70;100.00;75434.31;5011358;28;20118;-68
2023/10/31 04:55:28;;;;;;;21.15;12.55;;;;;;;-149.70;100.00;75432.28;5011438;28;20053;-68
2023/10/31 04:57:54;;;;;;;21.40;13.88;;;;;;;-149.70;100.00;75426.19;5011874;28;20465;-68
2023/10/31 05:00:21;;;;;;;25.60;13.38;;;;;;;-149.70;100.00;75434.31;5011145;28;20045;-67
2023/10/31 05:02:47;;;;;;;21.88;12.77;;;;;;;-149.70;100.00;75426.19;5011063;28;20046;-68
2023/10/31 05:05:15;;;;;;;25.25;13.75;;;;;;;-149.70;100.00;75434.31;5011542;28;20418;-67
2023/10/31 05:07:41;;;;;;;20.80;12.80;;;;;;;-149.70;100.00;75422.13;5012089;28;20052;-68
2023/10/31 05:10:08;;;;;;;20.27;13.55;;;;;;;-149.70;100.00;75420.09;5011484;28;20139;-68
2023/10/31 05:12:36;;;;;;;18.00;12.80;;;;;;;-149.70;100.00;75420.09;5011690;28;20053;-68
2023/10/31 05:15:04;;;;;;;23.58;13.63;;;;;;;-149.70;100.00;75434.31;5010571;28;20069;-68
2023/10/31 05:17:30;;;;;;;18.65;11.85;;;;;;;-149.70;100.00;75426.19;5011472;28;20465;-68
2023/10/31 05:19:57;;;;;;;21.27;13.23;;;;;;;-149.70;100.00;75430.25;5011377;28;20421;-68
2023/10/31 05:22:24;;;;;;;19.13;12.98;;;;;;;-149.70;100.00;75420.09;5011135;28;20060;-68
2023/10/31 05:24:51;;;;;;;21.90;13.00;;;;;;;-149.70;100.00;75422.13;5010817;28;20149;-68
2023/10/31 05:27:18;;;;;;;18.55;13.02;;;;;;;-149.70;100.00;75418.06;5011085;28;20053;-67
2023/10/31 05:29:45;;;;;;;20.40;12.90;;;;;;;-149.70;100.00;75414.00;5011113;28;20645;-67
2023/10/31 05:32:11;;;;;;;18.25;12.20;;;;;;;-149.70;100.00;75418.06;5011859;28;20054;-68
2023/10/31 05:34:38;;;;;;;17.00;12.45;;;;;;;-149.70;100.00;75409.94;5011186;28;20042;-67
2023/10/31 05:37:06;;;;;;;19.60;13.02;;;;;;;-149.70;100.00;75414.00;5010563;28;20048;-68
2023/10/31 05:39:32;;;;;;;18.27;12.75;;;;;;;-149.70;100.00;75409.94;5010462;28;20147;-68
2023/10/31 05:42:00;;;;;;;16.77;12.85;;;;;;;-149.70;100.00;75405.84;5010528;28;20092;-68
2023/10/31 05:44:26;;;;;;;16.83;12.05;;;;;;;-149.70;100.00;75399.75;5009741;28;20100;-68
2023/10/31 05:46:53;;;;;;;17.65;11.00;;;;;;;-149.70;100.00;75401.78;4992386;28;20524;-68
2023/10/31 05:49:20;;;;;;;13.77;10.20;;;;;;;-149.70;100.00;75409.94;5010282;28;20130;-68
2023/10/31 05:51:53;;;;;;;16.55;10.60;;;;;;;-149.70;100.00;75416.03;5009966;28;20466;-67
2023/10/31 05:54:19;;;;;;;13.75;10.02;;;;;;;-149.70;100.00;75418.06;4994530;28;20046;-68
2023/10/31 05:56:46;;;;;;;16.65;10.43;;;;;;;-149.70;100.00;75409.94;4989929;28;20360;-67
2023/10/31 05:59:13;;;;;;;14.30;10.35;;;;;;;-149.70;100.00;75414.00;4990355;28;20105;-66
2023/10/31 06:01:39;;;;;;;19.08;11.18;;;;;;;-149.70;100.00;75407.91;4991575;28;20050;-67
2023/10/31 06:04:06;;;;;;;18.92;10.80;;;;;;;-149.70;100.00;75401.78;4973393;28;20050;-68
2023/10/31 06:06:33;;;;;;;11.73;9.63;;;;;;;-149.70;100.00;75409.94;4989700;28;20054;-67
2023/10/31 06:09:00;;;;;;;14.38;10.32;;;;;;;-149.70;100.00;75414.00;4989499;28;20093;-67
2023/10/31 06:11:26;;;;;;;14.50;10.23;;;;;;;-149.70;100.00;75409.94;4990831;28;20448;-67
2023/10/31 06:13:53;;;;;;;17.67;10.57;;;;;;;-149.70;100.00;75399.75;4990086;28;20050;-67
2023/10/31 06:16:21;;;;;;;14.43;10.45;;;;;;;-149.70;100.00;75407.91;4989731;28;20394;-67
2023/10/31 06:18:47;;;;;;;13.45;9.38;;;;;;;-149.70;100.00;75407.91;4989562;28;20046;-67
2023/10/31 06:21:14;;;;;;;13.20;8.60;;;;;;;-149.70;100.00;75405.84;4990067;28;20046;-67
2023/10/31 06:23:42;;;;;;;16.65;8.90;;;;;;;-149.70;100.00;75385.53;4990261;28;20042;-68
2023/10/31 06:26:09;;;;;;;15.95;10.13;;;;;;;-149.70;100.00;75395.69;4990287;28;20046;-68
2023/10/31 06:28:37;;;;;;;9.07;7.82;;;;;;;-149.70;100.00;75397.72;4989774;28;20046;-68
2023/10/31 06:31:09;;;;;;;12.85;8.10;;;;;;;-149.70;100.00;75405.84;4989537;28;20494;-68
2023/10/31 06:33:35;;;;;;;11.35;8.55;;;;;;;-149.70;100.00;75401.78;4989957;28;20046;-68
2023/10/31 06:36:02;;;;;;;11.13;7.78;;;;;;;-149.70;100.00;75399.75;4990083;28;20759;-68
2023/10/31 06:38:28;;;;;;;13.95;8.27;;;;;;;-149.70;100.00;75403.81;4989597;28;20061;-68
2023/10/31 06:40:57;;;;;;;12.23;7.60;;;;;;;-149.70;100.00;75409.94;4989752;28;20050;-68
2023/10/31 06:43:23;;;;;;;14.45;7.78;;;;;;;-149.70;100.00;75407.91;4990712;28;20050;-68
2023/10/31 06:45:50;;;;;;;14.75;8.02;;;;;;;-149.70;100.00;75414.00;4989139;28;20465;-68
2023/10/31 06:48:16;;;;;;;13.05;8.13;;;;;;;-149.70;100.00;75399.75;4989626;28;20494;-68
2023/10/31 06:50:43;;;;;;;23.65;7.28;;;;;;;-149.70;100.00;75397.72;4989337;28;20051;-68
2023/10/31 06:53:09;;;;;;;11.15;7.10;;;;;;;-149.70;100.00;75405.84;4995972;28;20052;-68
2023/10/31 06:55:36;;;;;;;10.32;6.50;;;;;;;-149.70;100.00;75411.97;5009071;28;20129;-68
2023/10/31 06:58:03;;;;;;;11.40;7.00;;;;;;;-149.70;100.00;75409.94;5008756;28;20092;-68
2023/10/31 07:00:31;;;;;;;10.38;6.75;;;;;;;-149.70;100.00;75405.84;5008912;28;20498;-67
2023/10/31 07:02:58;;;;;;;8.82;5.75;;;;;;;-149.70;100.00;75414.00;5009313;28;20052;-67
2023/10/31 07:05:26;;;;;;;12.35;5.28;;;;;;;-149.70;100.00;75409.94;5008953;28;20137;-67
2023/10/31 07:07:53;;;;;;;7.32;5.43;;;;;;;-149.70;100.00;75409.94;5007997;28;20046;-66
2023/10/31 07:10:20;;;;;;;10.40;4.78;;;;;;;-149.70;100.00;75414.00;5008557;28;20046;-67
2023/10/31 07:12:46;;;;;;;9.70;5.80;;;;;;;-149.70;100.00;75414.00;5008796;28;20076;-67
2023/10/31 07:15:13;;;;;;;8.35;5.53;;;;;;;-149.70;100.00;75414.00;5008429;28;20038;-67
2023/10/31 07:17:39;;;;;;;8.27;5.68;;;;;;;-149.70;100.00;75420.09;5009815;28;20092;-66
2023/10/31 07:20:07;;;;;;;7.57;4.80;;;;;;;-149.70;100.00;75442.44;5008293;28;20045;-67
2023/10/31 07:22:34;;;;;;;9.65;4.78;;;;;;;-149.70;100.00;75436.34;4991219;28;20057;-65
2023/10/31 07:25:03;;;;;;;10.55;4.70;;;;;;;-149.70;100.00;75446.53;5009174;28;20458;-66
2023/10/31 07:27:29;;;;;;;6.32;3.90;;;;;;;-149.70;100.00;75466.84;5008577;28;20108;-67
2023/10/31 07:29:56;;;;;;;7.82;3.65;;;;;;;-149.70;100.00;75468.88;5007244;28;20128;-67
2023/10/31 07:32:22;;;;;;;9.98;3.88;;;;;;;-149.70;100.00;75472.94;5008251;28;20181;-67
2023/10/31 07:34:50;;;;;;;7.07;3.45;;;;;;;-149.70;100.00;75481.06;5008557;28;20128;-67
2023/10/31 07:37:16;;;;;;;5.10;3.17;;;;;;;-149.70;100.00;75493.28;5008912;28;20130;-66
2023/10/31 07:39:43;;;;;;;5.95;2.90;;;;;;;-149.70;100.00;75495.31;5008053;28;20100;-66
2023/10/31 07:42:10;;;;;;;5.43;3.13;;;;;;;-149.70;100.00;75505.47;5009086;28;20490;-66
2023/10/31 07:44:36;;;;;;;5.00;2.33;;;;;;;-149.70;100.00;75513.59;5009091;28;20100;-66
2023/10/31 07:47:03;;;;;;;5.45;2.67;;;;;;;-149.70;100.00;75525.78;5007670;28;20160;-66
2023/10/31 07:49:29;;;;;;;6.63;2.17;;;;;;;-149.70;100.00;75538.00;5008307;28;20417;-67
2023/10/31 07:51:56;;;;;;;2.30;1.75;;;;;;;-149.70;100.00;75564.41;5007957;28;20474;-66
2023/10/31 07:54:22;;;;;;;3.25;1.60;;;;;;;-149.70;100.00;75562.38;5008234;28;20105;-66
2023/10/31 07:56:49;;;;;;;5.47;1.63;;;;;;;-149.70;100.00;75570.53;5008159;28;20046;-65
2023/10/31 07:59:15;;;;;;;6.13;1.83;;;;;;;-149.70;100.00;75572.56;5008656;28;20414;-66
2023/10/31 08:01:42;;;;;;;7.45;1.30;;;;;;;-149.70;100.00;75572.56;5010629;28;20050;-66
2023/10/31 08:04:09;;;;;;;3.83;1.15;;;;;;;-149.70;100.00;75582.72;5010970;28;20129;-67
2023/10/31 08:06:36;;;;;;;6.60;1.23;;;;;;;-149.70;100.00;75576.63;5012010;28;20125;-67
2023/10/31 08:09:03;;;;;;;2.72;0.93;;;;;;;-149.70;100.00;75574.59;5011732;28;20054;-68
2023/10/31 08:11:34;;;;;;;2.15;1.20;;;;;;;-149.70;100.00;75568.50;5011904;28;20191;-67
2023/10/31 08:14:01;;;;;;;3.65;1.10;;;;;;;-149.70;100.00;75564.41;5012270;28;20092;-67
2023/10/31 08:16:28;;;;;;;6.45;1.08;;;;;;;-149.70;100.00;75542.06;5012340;28;20042;-68
2023/10/31 08:18:55;;;;;;;4.10;1.05;;;;;;;-149.70;100.00;75535.97;5011442;28;20498;-68
2023/10/31 08:21:21;;;;;;;1.33;0.98;;;;;;;-149.70;100.00;75523.75;5011559;28;20054;-67
2023/10/31 08:23:48;;;;;;;2.90;1.02;;;;;;;-149.70;100.00;75531.91;5011421;28;20069;-67
2023/10/31 08:26:14;;;;;;;3.60;0.88;;;;;;;-149.70;100.00;75548.16;5011924;28;20065;-67
2023/10/31 08:28:41;;;;;;;1.55;0.80;;;;;;;-149.70;100.00;75550.19;5013138;28;20053;-67
2023/10/31 08:31:07;;;;;;;1.17;0.70;;;;;;;-149.70;100.00;75538.00;5010665;28;20412;-67
2023/10/31 08:33:34;;;;;;;0.55;0.55;;;;;;;-149.70;100.00;75519.69;5011996;28;20100;-67
2023/10/31 08:36:01;;;;;;;2.22;0.60;;;;;;;-149.70;100.00;75503.44;5011922;28;20057;-67
2023/10/31 08:38:28;;;;;;;1.10;0.60;;;;;;;-149.70;100.00;75468.88;5010792;28;20494;-67
2023/10/31 08:40:58;;;;;;;3.70;1.00;;;;;;;-149.70;100.00;75424.16;5011232;28;20050;-67
2023/10/31 08:43:26;;;;;;;0.52;0.50;;;;;;;-149.70;100.00;75426.19;5011046;28;20351;-67
2023/10/31 08:45:52;;;;;;;1.25;0.75;;;;;;;-149.70;100.00;75436.34;5009840;28;20054;-67
2023/10/31 08:48:19;;;;;;;1.77;0.50;;;;;;;-149.70;100.00;75466.84;5010996;28;20046;-67
2023/10/31 08:50:45;;;;;;;1.60;0.63;;;;;;;-149.70;100.00;75481.06;5010420;28;20490;-66
2023/10/31 08:53:12;;;;;;;0.93;0.60;;;;;;;-149.70;100.00;75491.25;5005285;28;20133;-67
2023/10/31 08:55:39;;;;;;;3.25;0.47;;;;;;;-149.70;100.00;75481.06;4992140;28;20038;-67
2023/10/31 08:58:05;;;;;;;3.15;0.47;;;;;;;-149.70;100.00;75474.97;4991081;28;20053;-68
2023/10/31 09:00:32;;;;;;;1.42;0.50;;;;;;;-149.70;100.00;75511.56;4974442;28;20046;-67
2023/10/31 09:02:59;;;;;;;3.33;0.45;;;;;;;-149.70;100.00;75544.09;4991149;28;20050;-68
2023/10/31 09:05:25;;;;;;;1.17;0.32;;;;;;;-149.70;100.00;75529.88;4991578;28;20046;-65
2023/10/31 09:07:52;;;;;;;0.90;0.40;;;;;;;-149.70;100.00;75513.59;4991999;28;20111;-65
2023/10/31 09:10:21;;;;;;;1.75;0.52;;;;;;;-149.70;100.00;75525.78;4991483;28;20046;-65
2023/10/31 09:12:48;;;;;;;3.25;0.52;;;;;;;-149.70;100.00;75519.69;4990527;28;20042;-65
2023/10/31 09:15:14;;;;;;;1.65;0.30;;;;;;;-149.70;100.00;75519.69;4990693;28;20054;-65
2023/10/31 09:17:41;;;;;;;0.50;0.40;;;;;;;-149.70;100.00;75489.22;4992648;28;20466;-65
2023/10/31 09:20:08;;;;;;;1.00;0.40;;;;;;;-149.70;100.00;75507.50;4991496;28;20046;-65
2023/10/31 09:22:35;;;;;;;4.43;0.47;;;;;;;-149.70;100.00;75474.97;4990895;28;20446;-65
2023/10/31 09:25:02;;;;;;;1.52;0.60;;;;;;;-149.70;100.00;75462.78;4991371;28;20042;-65
2023/10/31 09:27:29;;;;;;;1.98;0.63;;;;;;;-149.70;100.00;75462.78;4991573;28;20042;-65
2023/10/31 09:29:55;;;;;;;2.63;0.52;;;;;;;-149.70;100.00;75450.59;4990388;28;20088;-67
2023/10/31 09:32:22;;;;;;;0.70;0.40;;;;;;;-149.70;100.00;75468.88;4991262;28;20081;-65
2023/10/31 09:34:49;;;;;;;1.23;0.75;;;;;;;-149.70;100.00;75458.72;4991045;28;20050;-67
2023/10/31 09:37:15;;;;;;;5.15;1.10;;;;;;;-149.70;100.00;75479.03;4973095;28;20046;-67
2023/10/31 09:39:42;;;;;;;1.58;0.80;;;;;;;-149.70;100.00;75497.34;4991895;28;20450;-67
2023/10/31 09:42:09;;;;;;;3.05;0.88;;;;;;;-149.70;100.00;75515.63;4990491;28;20105;-67
2023/10/31 09:44:35;;;;;;;3.60;1.80;;;;;;;-149.70;100.00;75511.56;4974076;28;20050;-65
2023/10/31 09:47:02;;;;;;;2.10;1.13;;;;;;;-149.70;100.00;75493.28;4988995;28;20051;-65
2023/10/31 09:49:29;;;;;;;4.10;0.70;;;;;;;-149.70;100.00;75481.06;4989567;28;20054;-65
2023/10/31 09:51:56;;;;;;;2.92;0.82;;;;;;;-149.70;100.00;75444.47;4989940;28;20043;-65
2023/10/31 09:54:25;;;;;;;0.93;0.73;;;;;;;-149.70;100.00;75430.25;5006019;28;20502;-65
2023/10/31 09:56:51;;;;;;;2.20;0.80;;;;;;;-149.70;100.00;75420.09;5009771;28;20046;-65
2023/10/31 09:59:18;;;;;;;1.30;0.63;;;;;;;-149.70;100.00;75430.25;5010882;28;20053;-66
2023/10/31 10:01:44;;;;;;;5.45;1.17;;;;;;;-149.70;100.00;75468.88;5010082;28;20060;-65
2023/10/31 10:04:11;;;;;;;1.00;0.75;;;;;;;-149.70;100.00;75466.84;5011103;28;20105;-65
2023/10/31 10:07:01;;;;;;;10.55;0.80;;;;;;;-149.70;100.00;75501.41;5010078;28;20050;-65
2023/10/31 10:09:29;;;;;;;1.83;0.88;;;;;;;-149.70;100.00;75507.50;5010367;28;20463;-66
2023/10/31 10:11:58;;;;;;;1.45;0.80;;;;;;;-149.70;100.00;75513.59;5009577;28;20395;-67
2023/10/31 10:14:28;;;;;;;0.90;0.50;;;;;;;-149.70;100.00;75499.38;5009928;28;20053;-65
2023/10/31 10:16:55;;;;;;;2.53;0.73;;;;;;;-149.70;100.00;75517.66;5009851;28;20556;-66
2023/10/31 10:19:22;;;;;;;1.58;1.02;;;;;;;-149.70;100.00;75509.53;5009761;28;20057;-65
2023/10/31 10:21:54;;;;;;;3.13;0.80;;;;;;;-149.70;100.00;75503.44;5009589;28;20052;-65
2023/10/31 10:24:21;;;;;;;1.55;0.80;;;;;;;-149.70;100.00;75523.75;5010143;28;20050;-66
2023/10/31 10:26:48;;;;;;;4.53;1.20;;;;;;;-149.70;100.00;75531.91;5008968;28;20129;-66
2023/10/31 10:29:15;;;;;;;4.47;1.00;;;;;;;-149.70;100.00;75523.75;5009905;28;20057;-66
2023/10/31 10:31:42;;;;;;;2.92;0.70;;;;;;;-149.70;100.00;75491.25;5010425;28;20053;-66
2023/10/31 10:34:09;;;;;;;2.20;1.00;;;;;;;-149.70;100.00;75458.72;5010652;28;20183;-66
2023/10/31 10:36:36;;;;;;;5.68;1.42;;;;;;;-149.70;100.00;75446.53;5009557;28;20406;-66
2023/10/31 10:39:03;;;;;;;2.35;0.98;;;;;;;-149.70;100.00;75409.94;5009903;28;20046;-66
2023/10/31 10:41:33;;;;;;;2.10;1.00;;;;;;;-149.70;100.00;75411.97;5010068;28;20042;-66
2023/10/31 10:44:06;;;;;;;5.80;0.90;;;;;;;-149.70;100.00;75416.03;5009298;28;20104;-67
2023/10/31 10:46:35;;;;;;;3.03;0.88;;;;;;;-149.70;100.00;75418.06;5009581;28;20251;-67
2023/10/31 10:49:06;;;;;;;2.17;1.10;;;;;;;-149.70;100.00;75436.34;5009311;28;20050;-66
2023/10/31 10:52:22;;;;;;;4.65;2.70;;;;;;;-149.70;100.00;75426.19;5009976;28;20054;-67
2023/10/31 10:55:07;;;;;;;7.55;2.55;;;;;;;-149.70;100.00;75389.59;4930857;28;20124;-66
2023/10/31 10:57:48;;;;;;;3.67;1.42;;;;;;;-149.70;100.00;75409.94;4990281;28;21483;-66
2023/10/31 11:00:16;;;;;;;9.57;3.60;;;;;;;-149.70;100.00;75430.25;4989936;28;20066;-67
2023/10/31 11:02:43;;;;;;;4.97;1.40;;;;;;;-149.70;100.00;75430.25;4990211;28;20054;-67
2023/10/31 11:05:10;;;;;;;1.60;1.40;;;;;;;-149.70;100.00;75430.25;4990309;28;20046;-66